THY777 LTAI-LTAC
Flight info
| Callsign | THY777 |
|---|---|
| Flight time | 0h 38m |
| Altitude | 33000 |
| Route | HISAR1F/36R HISAR UW77 HALIL |
| Aircraft | B77W/H-SDE1E2E3FGHIJ2J3J4J5M1RWXY/LB1D1 |
Departure
| Time | 2026-05-04 16:13 |
|---|---|
| Airport | Antalya International Airport (LTAI) |
Arrival
| Time | 2026-05-04 16:51 |
|---|---|
| Airport | Esenboğa International Airport (LTAC) |
| Time | Latitude | Longitude | Altitude | Speed | Heading |
|---|---|---|---|---|---|
| 2026-05-04 16:01 | 36.88980 | 30.80294 | 181 ft | 0 kts | 275° |
| 2026-05-04 16:08 | 36.88978 | 30.80397 | 181 ft | 0 kts | 261° |
| 2026-05-04 16:09 | 36.88929 | 30.80384 | 181 ft | 8 kts | 187° |
| 2026-05-04 16:09 | 36.88817 | 30.80402 | 181 ft | 9 kts | 132° |
| 2026-05-04 16:10 | 36.88787 | 30.80552 | 181 ft | 9 kts | 127° |
| 2026-05-04 16:11 | 36.88391 | 30.80526 | 181 ft | 23 kts | 186° |
| 2026-05-04 16:11 | 36.88233 | 30.80503 | 181 ft | 20 kts | 187° |
| 2026-05-04 16:12 | 36.88161 | 30.80733 | 181 ft | 18 kts | 7° |
| 2026-05-04 16:12 | 36.90215 | 30.80986 | 603 ft | 160 kts | 0° |
| 2026-05-04 16:13 | 36.92394 | 30.81809 | 2327 ft | 158 kts | 12° |
| 2026-05-04 16:13 | 36.94747 | 30.82892 | 3119 ft | 210 kts | 14° |
| 2026-05-04 16:14 | 36.97739 | 30.84341 | 4391 ft | 242 kts | 16° |
| 2026-05-04 16:14 | 37.00957 | 30.85918 | 6277 ft | 252 kts | 17° |
| 2026-05-04 16:15 | 37.05982 | 30.88364 | 9005 ft | 264 kts | 17° |
| 2026-05-04 16:16 | 37.09519 | 30.88515 | 10568 ft | 265 kts | 347° |
| 2026-05-04 16:16 | 37.15524 | 30.90319 | 11419 ft | 347 kts | 25° |
| 2026-05-04 16:17 | 37.19856 | 30.93300 | 13472 ft | 360 kts | 24° |
| 2026-05-04 16:18 | 37.26667 | 30.97856 | 16378 ft | 376 kts | 23° |
| 2026-05-04 16:18 | 37.28987 | 30.99387 | 17494 ft | 379 kts | 24° |
| 2026-05-04 16:19 | 37.36203 | 31.04112 | 20009 ft | 398 kts | 23° |
| 2026-05-04 16:19 | 37.41187 | 31.07384 | 21620 ft | 410 kts | 23° |
| 2026-05-04 16:20 | 37.48859 | 31.12424 | 23907 ft | 423 kts | 23° |
| 2026-05-04 16:20 | 37.54085 | 31.15866 | 23931 ft | 424 kts | 23° |
| 2026-05-04 16:21 | 37.61923 | 31.21041 | 23950 ft | 423 kts | 23° |
| 2026-05-04 16:22 | 37.67130 | 31.24483 | 23969 ft | 422 kts | 22° |
| 2026-05-04 16:22 | 37.75018 | 31.29700 | 25667 ft | 429 kts | 23° |
| 2026-05-04 16:23 | 37.83056 | 31.35037 | 27650 ft | 440 kts | 23° |
| 2026-05-04 16:24 | 37.93792 | 31.42191 | 30924 ft | 433 kts | 23° |
| 2026-05-04 16:25 | 37.99130 | 31.45751 | 31963 ft | 438 kts | 24° |
| 2026-05-04 16:26 | 38.17928 | 31.58140 | 31950 ft | 434 kts | 22° |
| 2026-05-04 16:28 | 38.31494 | 31.66627 | 31949 ft | 436 kts | 22° |
| 2026-05-04 16:29 | 38.50501 | 31.78678 | 31943 ft | 434 kts | 22° |
| 2026-05-04 16:31 | 38.63990 | 31.87269 | 31963 ft | 436 kts | 23° |
| 2026-05-04 16:32 | 38.80365 | 31.97750 | 31952 ft | 439 kts | 23° |
| 2026-05-04 16:33 | 38.91283 | 32.04770 | 31948 ft | 437 kts | 23° |
| 2026-05-04 16:34 | 38.99406 | 32.10006 | 31936 ft | 438 kts | 24° |
| 2026-05-04 16:35 | 39.07379 | 32.15165 | 31925 ft | 417 kts | 24° |
| 2026-05-04 16:35 | 39.15134 | 32.20187 | 31929 ft | 415 kts | 25° |
| 2026-05-04 16:36 | 39.21998 | 32.24646 | 31932 ft | 414 kts | 25° |
| 2026-05-04 16:37 | 39.29712 | 32.29669 | 31792 ft | 411 kts | 25° |
| 2026-05-04 16:37 | 39.34791 | 32.32983 | 30928 ft | 406 kts | 25° |
| 2026-05-04 16:38 | 39.39852 | 32.36086 | 30003 ft | 398 kts | 14° |
| 2026-05-04 16:39 | 39.47858 | 32.38217 | 28312 ft | 388 kts | 23° |
| 2026-05-04 16:39 | 39.51883 | 32.42700 | 27328 ft | 390 kts | 53° |
| 2026-05-04 16:40 | 39.54573 | 32.48747 | 26404 ft | 385 kts | 59° |
| 2026-05-04 16:40 | 39.57171 | 32.54783 | 25590 ft | 379 kts | 58° |
| 2026-05-04 16:41 | 39.59739 | 32.60676 | 24823 ft | 373 kts | 58° |
| 2026-05-04 16:41 | 39.63708 | 32.69734 | 21718 ft | 401 kts | 60° |
| 2026-05-04 16:42 | 39.68479 | 32.78096 | 17853 ft | 375 kts | 33° |
| 2026-05-04 16:43 | 39.72708 | 32.81833 | 15244 ft | 361 kts | 36° |
| 2026-05-04 16:43 | 39.76695 | 32.85617 | 12745 ft | 349 kts | 36° |
| 2026-05-04 16:43 | 39.78620 | 32.87442 | 11964 ft | 332 kts | 36° |
| 2026-05-04 16:44 | 39.85352 | 32.93814 | 10538 ft | 291 kts | 37° |
| 2026-05-04 16:45 | 39.88664 | 32.96528 | 9225 ft | 275 kts | 14° |
| 2026-05-04 16:46 | 39.93394 | 32.94197 | 7632 ft | 245 kts | 310° |
| 2026-05-04 16:46 | 39.95358 | 32.90679 | 6420 ft | 237 kts | 307° |
| 2026-05-04 16:47 | 39.97224 | 32.87330 | 5576 ft | 209 kts | 313° |
| 2026-05-04 16:47 | 39.99645 | 32.86726 | 5511 ft | 186 kts | 30° |
| 2026-05-04 16:48 | 40.02746 | 32.90037 | 4903 ft | 193 kts | 32° |
| 2026-05-04 16:48 | 40.03806 | 32.91050 | 4680 ft | 183 kts | 33° |
| 2026-05-04 16:49 | 40.05622 | 32.92782 | 4493 ft | 155 kts | 32° |
| 2026-05-04 16:49 | 40.07295 | 32.94383 | 4211 ft | 146 kts | 32° |
| 2026-05-04 16:50 | 40.08958 | 32.95969 | 3778 ft | 149 kts | 32° |
| 2026-05-04 16:50 | 40.10607 | 32.97556 | 3370 ft | 141 kts | 33° |
| 2026-05-04 16:51 | 40.12183 | 32.99048 | 3122 ft | 124 kts | 38° |
| 2026-05-04 16:51 | 40.12590 | 32.99473 | 3122 ft | 39 kts | 62° |
| 2026-05-04 16:51 | 40.12525 | 32.99692 | 3123 ft | 11 kts | 214° |
| 2026-05-04 16:52 | 40.12396 | 32.99567 | 3121 ft | 12 kts | 217° |
| 2026-05-04 16:52 | 40.12329 | 32.99503 | 3120 ft | 14 kts | 216° |
| 2026-05-04 16:53 | 40.12168 | 32.99351 | 3123 ft | 14 kts | 216° |
| 2026-05-04 16:53 | 40.11932 | 32.99124 | 3119 ft | 14 kts | 216° |
| 2026-05-04 16:54 | 40.11855 | 32.99050 | 3119 ft | 11 kts | 216° |
| 2026-05-04 16:55 | 40.11495 | 32.98845 | 3118 ft | 19 kts | 219° |
| 2026-05-04 16:55 | 40.11329 | 32.98685 | 3116 ft | 9 kts | 205° |
| 2026-05-04 16:56 | 40.11278 | 32.98721 | 3115 ft | 4 kts | 128° |
| 2026-05-04 16:56 | 40.11274 | 32.98726 | 3115 ft | 0 kts | 128° |